createdAt,value
2019-01-19T00:00:19.548Z,98739.39
2019-01-19T00:03:21.789Z,98737.11
2019-01-19T00:06:35.842Z,98729.52
2019-01-19T00:09:31.800Z,98734.88
2019-01-19T00:12:38.609Z,98727.51
2019-01-19T00:15:32.015Z,98724.66
2019-01-19T00:18:46.386Z,98725.57
2019-01-19T00:21:40.063Z,98728.08
2019-01-19T00:24:48.435Z,98729.90
2019-01-19T00:27:41.862Z,98725.65
2019-01-19T00:30:43.720Z,98720.48
2019-01-19T00:33:42.589Z,98716.81
2019-01-19T00:36:35.962Z,98716.08
2019-01-19T00:39:26.270Z,98717.56
2019-01-19T00:42:22.442Z,98722.72
2019-01-19T00:45:35.071Z,98713.31
2019-01-19T00:48:33.729Z,98717.56
2019-01-19T00:51:29.885Z,98720.03
2019-01-19T00:54:19.970Z,98716.46
2019-01-19T00:57:09.821Z,98718.74
2019-01-19T00:59:57.388Z,98713.58
2019-01-19T01:02:50.865Z,98715.81
2019-01-19T01:05:43.754Z,98709.55
2019-01-19T01:08:51.570Z,98705.68
2019-01-19T01:11:44.571Z,98707.51
2019-01-19T01:14:46.492Z,98710.20
2019-01-19T01:17:37.295Z,98706.78
2019-01-19T01:20:47.117Z,98704.66
2019-01-19T01:23:42.965Z,98704.55
2019-01-19T01:26:35.391Z,98703.56
2019-01-19T01:29:49.310Z,98698.40
2019-01-19T01:32:42.601Z,98699.31
2019-01-19T01:35:49.231Z,98696.80
2019-01-19T01:38:51.183Z,98692.13
2019-01-19T01:41:47.531Z,98689.37
2019-01-19T01:44:49.529Z,98686.41
2019-01-19T01:47:39.741Z,98691.19
2019-01-19T01:50:41.792Z,98695.44
2019-01-19T01:54:05.326Z,98691.84
2019-01-19T01:56:52.700Z,98690.55
2019-01-19T01:59:54.427Z,98682.73
2019-01-19T02:02:47.689Z,98681.81
2019-01-19T02:05:49.963Z,98676.55
2019-01-19T02:08:43.335Z,98675.25
2019-01-19T02:11:45.192Z,98673.13
2019-01-19T02:14:44.055Z,98672.22
2019-01-19T02:17:46.132Z,98676.09
2019-01-19T02:20:45.094Z,98683.45
2019-01-19T02:23:35.422Z,98683.45
2019-01-19T02:26:41.816Z,98673.70
2019-01-19T02:29:50.501Z,98678.48
2019-01-19T02:32:40.681Z,98674.16
2019-01-19T02:35:48.644Z,98680.15
2019-01-19T02:38:52.320Z,98681.44
2019-01-19T02:41:42.434Z,98676.47
2019-01-19T02:44:32.364Z,98679.95
2019-01-19T02:47:34.693Z,98671.38
2019-01-19T02:50:36.965Z,98664.67
2019-01-19T02:53:36.331Z,98668.16
2019-01-19T02:56:38.624Z,98663.38
2019-01-19T02:59:31.847Z,98667.33
2019-01-19T03:02:42.899Z,98661.71
2019-01-19T03:05:45.429Z,98658.78
2019-01-19T03:08:44.512Z,98651.20
2019-01-19T03:11:40.760Z,98652.69
2019-01-19T03:14:30.898Z,98659.97
2019-01-19T03:17:32.951Z,98652.69
2019-01-19T03:20:44.185Z,98651.05
2019-01-19T03:23:40.210Z,98657.84
2019-01-19T03:26:50.260Z,98649.38
2019-01-19T03:29:43.265Z,98654.09
2019-01-19T03:32:42.746Z,98658.87
2019-01-19T03:35:36.091Z,98656.74
2019-01-19T03:38:35.527Z,98653.44
2019-01-19T03:41:38.478Z,98663.76
2019-01-19T03:44:34.876Z,98653.44
2019-01-19T03:47:30.855Z,98649.19
2019-01-19T03:50:29.508Z,98644.95
2019-01-19T03:53:23.114Z,98649.76
2019-01-19T03:56:28.710Z,98646.34
2019-01-19T03:59:19.383Z,98648.92
2019-01-19T04:02:45.965Z,98642.29
2019-01-19T04:05:36.538Z,98644.59
2019-01-19T04:08:32.150Z,98651.50
2019-01-19T04:11:31.229Z,98644.03
2019-01-19T04:14:41.911Z,98643.50
2019-01-19T04:17:41.064Z,98647.37
2019-01-19T04:20:40.201Z,98643.84
2019-01-19T04:23:27.419Z,98650.94
2019-01-19T04:26:15.936Z,98647.07
2019-01-19T04:29:03.189Z,98647.52
2019-01-19T04:31:50.567Z,98638.80
2019-01-19T04:34:38.157Z,98636.11
2019-01-19T04:37:25.367Z,98643.58
2019-01-19T04:40:13.307Z,98642.94
2019-01-19T04:43:00.675Z,98643.66
2019-01-19T04:45:47.582Z,98645.70
2019-01-19T04:48:35.733Z,98639.06
2019-01-19T04:51:22.980Z,98642.94
2019-01-19T04:54:10.225Z,98640.16
2019-01-19T04:56:57.077Z,98633.64
2019-01-19T04:59:44.363Z,98639.59
2019-01-19T05:02:31.684Z,98642.17
2019-01-19T05:05:18.917Z,98641.19
2019-01-19T05:08:06.017Z,98636.48
2019-01-19T05:10:53.321Z,98633.53
2019-01-19T05:13:40.515Z,98635.73
2019-01-19T05:16:27.940Z,98638.42
2019-01-19T05:19:15.215Z,98630.95
2019-01-19T05:22:02.606Z,98632.05
2019-01-19T05:24:49.737Z,98635.57
2019-01-19T05:27:36.986Z,98631.14
2019-01-19T05:30:24.527Z,98635.84
2019-01-19T05:33:11.858Z,98629.13
2019-01-19T05:35:58.830Z,98630.78
2019-01-19T05:38:46.499Z,98631.20
2019-01-19T05:41:33.799Z,98631.48
2019-01-19T05:44:21.009Z,98632.07
2019-01-19T05:47:08.312Z,98626.92
2019-01-19T05:49:55.784Z,98621.20
2019-01-19T05:52:42.730Z,98619.34
2019-01-19T05:55:29.662Z,98623.13
2019-01-19T05:58:17.034Z,98617.14
2019-01-19T06:01:04.275Z,98622.30
2019-01-19T06:03:51.678Z,98618.43
2019-01-19T06:06:46.396Z,98619.00
2019-01-19T06:09:27.666Z,98620.82
2019-01-19T06:12:15.084Z,98621.39
2019-01-19T06:15:02.298Z,98620.63
2019-01-19T06:17:49.660Z,98620.28
2019-01-19T06:20:36.868Z,98615.85
2019-01-19T06:23:24.208Z,98615.31
2019-01-19T06:26:11.391Z,98616.41
2019-01-19T06:28:58.647Z,98616.68
2019-01-19T06:31:45.538Z,98619.82
2019-01-19T06:34:33.211Z,98617.32
2019-01-19T06:37:20.858Z,98616.03
2019-01-19T06:40:11.546Z,98620.01
2019-01-19T06:42:58.764Z,98610.68
2019-01-19T06:45:46.287Z,98617.78
2019-01-19T06:48:33.649Z,98609.39
2019-01-19T06:51:20.640Z,98611.89
2019-01-19T06:54:08.002Z,98613.36
2019-01-19T06:56:55.245Z,98612.61
2019-01-19T06:59:42.414Z,98608.73
2019-01-19T07:02:29.608Z,98613.88
2019-01-19T07:05:17.228Z,98612.59
2019-01-19T07:08:04.654Z,98612.32
2019-01-19T07:10:52.217Z,98611.94
2019-01-19T07:13:39.382Z,98615.91
2019-01-19T07:16:26.664Z,98618.95
2019-01-19T07:19:14.165Z,98613.80
2019-01-19T07:22:01.086Z,98616.38
2019-01-19T07:24:48.679Z,98618.11
2019-01-19T07:27:35.993Z,98617.39
2019-01-19T07:30:22.937Z,98618.95
2019-01-19T07:33:10.367Z,98612.96
2019-01-19T07:35:57.682Z,98626.22
2019-01-19T07:38:44.590Z,98621.80
2019-01-19T07:41:31.686Z,98626.88
2019-01-19T07:44:18.734Z,98626.42
2019-01-19T07:47:06.595Z,98631.59
2019-01-19T07:49:53.931Z,98631.28
2019-01-19T07:52:40.953Z,98632.22
2019-01-19T07:55:28.623Z,98632.04
2019-01-19T07:58:16.153Z,98632.88
2019-01-19T08:01:03.570Z,98636.07
2019-01-19T08:03:50.845Z,98639.94
2019-01-19T08:06:38.280Z,98635.09
2019-01-19T08:09:25.573Z,98637.23
2019-01-19T08:12:13.033Z,98639.43
2019-01-19T08:15:00.393Z,98639.25
2019-01-19T08:17:47.696Z,98640.73
2019-01-19T08:20:35.183Z,98643.20
2019-01-19T08:23:22.186Z,98642.74
2019-01-19T08:26:09.685Z,98648.17
2019-01-19T08:28:56.593Z,98640.16
2019-01-19T08:31:43.855Z,98639.58
2019-01-19T08:34:31.288Z,98641.23
2019-01-19T08:37:24.283Z,98638.98
2019-01-19T08:40:13.285Z,98644.58
2019-01-19T08:43:13.861Z,98637.65
2019-01-19T08:46:02.205Z,98638.27
2019-01-19T08:48:49.449Z,98642.31
2019-01-19T08:51:36.905Z,98643.60
2019-01-19T08:54:24.499Z,98637.36
2019-01-19T08:57:11.938Z,98635.17
2019-01-19T08:59:58.941Z,98635.47
2019-01-19T09:02:46.195Z,98635.86
2019-01-19T09:05:33.429Z,98637.16
2019-01-19T09:08:20.999Z,98631.93
2019-01-19T09:11:08.389Z,98632.82
2019-01-19T09:13:55.745Z,98632.03
2019-01-19T09:16:43.101Z,98632.37
2019-01-19T09:19:32.055Z,98630.11
2019-01-19T09:22:19.274Z,98630.36
2019-01-19T09:25:09.377Z,98632.30
2019-01-19T09:27:56.950Z,98634.03
2019-01-19T09:30:44.365Z,98630.91
2019-01-19T09:33:32.009Z,98637.00
2019-01-19T09:36:19.534Z,98637.61
2019-01-19T09:39:09.622Z,98633.80
2019-01-19T09:41:56.814Z,98631.73
2019-01-19T09:44:44.067Z,98622.90
2019-01-19T09:47:31.022Z,98629.40
2019-01-19T09:50:22.353Z,98623.60
2019-01-19T09:53:09.652Z,98628.41
2019-01-19T09:55:57.013Z,98627.06
2019-01-19T09:58:44.233Z,98627.73
2019-01-19T10:01:31.501Z,98620.05
2019-01-19T10:04:18.441Z,98615.76
2019-01-19T10:07:05.618Z,98619.63
2019-01-19T10:09:52.804Z,98614.89
2019-01-19T10:12:40.054Z,98614.49
2019-01-19T10:15:27.025Z,98618.60
2019-01-19T10:18:14.392Z,98618.20
2019-01-19T10:21:01.860Z,98623.45
2019-01-19T10:23:48.912Z,98603.88
2019-01-19T10:26:36.515Z,98611.74
2019-01-19T10:29:24.300Z,98610.84
2019-01-19T10:32:11.345Z,98608.86
2019-01-19T10:34:58.556Z,98601.80
2019-01-19T10:37:45.815Z,98601.73
2019-01-19T10:40:33.406Z,98599.66
2019-01-19T10:43:20.944Z,98591.31
2019-01-19T10:46:08.109Z,98588.71
2019-01-19T10:48:55.615Z,98589.59
2019-01-19T10:51:42.841Z,98585.92
2019-01-19T10:54:30.020Z,98586.38
2019-01-19T10:57:17.564Z,98587.16
2019-01-19T11:00:08.039Z,98586.11
2019-01-19T11:02:55.764Z,98583.08
2019-01-19T11:05:43.001Z,98579.17
2019-01-19T11:08:30.172Z,98576.39
2019-01-19T11:11:17.591Z,98572.66
2019-01-19T11:14:05.145Z,98567.28
2019-01-19T11:16:52.615Z,98563.07
2019-01-19T11:19:39.580Z,98567.11
2019-01-19T11:22:26.763Z,98551.15
2019-01-19T11:25:14.440Z,98551.50
2019-01-19T11:28:01.727Z,98551.15
2019-01-19T11:30:49.229Z,98550.55
2019-01-19T11:33:36.481Z,98543.31
2019-01-19T11:36:23.737Z,98539.96
2019-01-19T11:39:11.195Z,98535.11
2019-01-19T11:41:59.208Z,98528.16
2019-01-19T11:44:47.055Z,98527.18
2019-01-19T11:47:34.649Z,98522.89
2019-01-19T11:50:22.829Z,98517.44
2019-01-19T11:53:10.111Z,98514.42
2019-01-19T11:55:57.532Z,98504.73
2019-01-19T11:58:44.699Z,98510.67
2019-01-19T12:01:32.871Z,98506.62
2019-01-19T12:04:20.408Z,98502.45
2019-01-19T12:07:07.887Z,98500.45
2019-01-19T12:09:54.833Z,98499.07
2019-01-19T12:12:42.032Z,98493.82
2019-01-19T12:15:29.480Z,98411.49
2019-01-19T12:18:16.770Z,98492.02
2019-01-19T12:21:04.182Z,98491.02
2019-01-19T12:23:51.272Z,98491.74
2019-01-19T12:26:38.750Z,98482.56
2019-01-19T12:29:26.164Z,98489.78
2019-01-19T12:32:13.396Z,98484.78
2019-01-19T12:35:00.249Z,98477.70
2019-01-19T12:37:47.588Z,98478.06
2019-01-19T12:40:34.846Z,98469.52
2019-01-19T12:43:22.352Z,98477.06
2019-01-19T12:46:09.827Z,98471.83
2019-01-19T12:48:57.106Z,98472.33
2019-01-19T12:51:44.618Z,98470.28
2019-01-19T12:54:32.387Z,98462.42
2019-01-19T12:57:19.807Z,98467.71
2019-01-19T13:00:10.076Z,98464.40
2019-01-19T13:02:57.641Z,98462.14
2019-01-19T13:05:53.358Z,98461.59
2019-01-19T13:08:41.844Z,98463.65
2019-01-19T13:11:49.470Z,98455.63
2019-01-19T13:14:39.744Z,98451.37
2019-01-19T13:17:41.786Z,98447.89
2019-01-19T13:20:43.735Z,98445.69
2019-01-19T13:23:45.156Z,98448.22
2019-01-19T13:26:41.035Z,98445.20
2019-01-19T13:30:02.806Z,98435.40
2019-01-19T13:33:10.835Z,98445.83
2019-01-19T13:36:23.810Z,98437.32
2019-01-19T13:39:23.009Z,98427.49
2019-01-19T13:42:19.129Z,98428.66
2019-01-19T13:45:12.229Z,98427.35
2019-01-19T13:48:05.340Z,98415.55
2019-01-19T13:51:11.686Z,98420.93
2019-01-19T13:54:22.459Z,98415.02
2019-01-19T13:57:16.176Z,98414.89
2019-01-19T14:00:18.748Z,98413.95
2019-01-19T14:03:23.277Z,98405.36
2019-01-19T14:06:13.146Z,98401.42
2019-01-19T14:09:17.960Z,98394.63
2019-01-19T14:12:17.181Z,98388.27
2019-01-19T14:15:13.728Z,98385.56
2019-01-19T14:18:09.919Z,98384.63
2019-01-19T14:21:05.856Z,98385.99
2019-01-19T14:24:09.226Z,98384.76
2019-01-19T14:27:14.458Z,98380.53
2019-01-19T14:30:19.673Z,98377.08
2019-01-19T14:33:12.560Z,98374.19
2019-01-19T14:36:23.243Z,98375.91
2019-01-19T14:39:25.185Z,98372.87
2019-01-19T14:42:18.539Z,98372.53
2019-01-19T14:45:17.895Z,98367.98
2019-01-19T14:48:10.576Z,98359.05
2019-01-19T14:51:03.395Z,98352.03
2019-01-19T14:54:05.787Z,98366.30
2019-01-19T14:56:59.146Z,98357.60
2019-01-19T15:00:07.161Z,98360.79
2019-01-19T15:03:07.519Z,98351.11
2019-01-19T15:06:16.483Z,98351.08
2019-01-19T15:09:12.588Z,98350.11
2019-01-19T15:12:17.791Z,98346.05
2019-01-19T15:15:31.409Z,98345.02
2019-01-19T15:18:32.000Z,98351.46
2019-01-19T15:21:22.331Z,98355.10
2019-01-19T15:24:21.857Z,98350.27
2019-01-19T15:27:20.841Z,98358.12
2019-01-19T15:30:11.515Z,98355.89
2019-01-19T15:33:07.967Z,98359.53
2019-01-19T15:35:58.164Z,98362.03
2019-01-19T15:38:57.321Z,98356.63
2019-01-19T15:41:56.073Z,98349.35
2019-01-19T15:44:58.186Z,98353.86
2019-01-19T15:48:06.285Z,98349.55
2019-01-19T15:51:11.573Z,98348.36
2019-01-19T15:54:21.207Z,98342.98
2019-01-19T15:57:17.438Z,98347.31
2019-01-19T16:00:28.524Z,98342.31
2019-01-19T16:03:36.813Z,98336.62
2019-01-19T16:06:39.449Z,98335.83
2019-01-19T16:09:48.057Z,98336.23
2019-01-19T16:12:46.003Z,98338.66
2019-01-19T16:15:52.332Z,98334.22
2019-01-19T16:18:42.548Z,98337.88
2019-01-19T16:21:41.526Z,98332.13
2019-01-19T16:24:43.505Z,98330.37
2019-01-19T16:27:51.836Z,98336.05
2019-01-19T16:31:11.931Z,98325.09
2019-01-19T16:34:11.020Z,98322.76
2019-01-19T16:37:10.269Z,98319.55
2019-01-19T16:40:12.285Z,98321.19
2019-01-19T16:43:14.480Z,98313.20
2019-01-19T16:46:21.206Z,98318.72
2019-01-19T16:49:14.188Z,98322.61
2019-01-19T16:52:22.363Z,98318.27
2019-01-19T16:55:36.971Z,98316.39
2019-01-19T16:58:46.081Z,98318.72
2019-01-19T17:01:44.636Z,98314.60
2019-01-19T17:04:54.403Z,98314.27
2019-01-19T17:07:47.576Z,98312.86
2019-01-19T17:10:52.757Z,98310.37
2019-01-19T17:13:54.778Z,98312.86
2019-01-19T17:17:02.766Z,98306.39
2019-01-19T17:20:17.181Z,98305.80
2019-01-19T17:23:13.074Z,98312.84
2019-01-19T17:26:22.565Z,98305.42
2019-01-19T17:29:18.861Z,98302.58
2019-01-19T17:32:21.057Z,98297.40
2019-01-19T17:35:34.182Z,98298.00
2019-01-19T17:38:39.513Z,98306.70
2019-01-19T17:41:57.995Z,98306.46
2019-01-19T17:44:57.214Z,98302.81
2019-01-19T17:48:03.964Z,98312.70
2019-01-19T17:51:15.220Z,98311.88
2019-01-19T17:54:40.558Z,98314.59
2019-01-19T17:57:31.146Z,98110.00
2019-01-19T18:00:36.350Z,98309.30
2019-01-19T18:03:32.381Z,98308.33
2019-01-19T18:06:38.805Z,98303.28
2019-01-19T18:09:31.460Z,98309.23
2019-01-19T18:12:30.625Z,98303.77
2019-01-19T18:15:41.886Z,98299.23
2019-01-19T18:18:49.983Z,98300.09
2019-01-19T18:22:04.374Z,98305.58
2019-01-19T18:25:12.061Z,98302.72
2019-01-19T18:28:02.362Z,98301.70
2019-01-19T18:31:07.625Z,98301.13
2019-01-19T18:33:58.221Z,98305.84
2019-01-19T18:36:48.395Z,98306.64
2019-01-19T18:39:38.832Z,98300.13
2019-01-19T18:42:41.072Z,98306.38
2019-01-19T18:45:31.570Z,98296.11
2019-01-19T18:48:54.660Z,98300.31
2019-01-19T18:51:56.842Z,98298.86
2019-01-19T18:55:03.676Z,98294.69
2019-01-19T18:58:05.915Z,98296.38
2019-01-19T19:01:02.302Z,98293.33
2019-01-19T19:04:13.371Z,98293.23
2019-01-19T19:07:21.475Z,98291.48
2019-01-19T19:10:17.677Z,98289.73
2019-01-19T19:13:07.899Z,98291.27
2019-01-19T19:16:09.790Z,98301.14
2019-01-19T19:19:32.819Z,98291.40
2019-01-19T19:22:39.467Z,98292.70
2019-01-19T19:26:02.455Z,98291.41
2019-01-19T19:28:58.739Z,98291.67
2019-01-19T19:31:49.332Z,98292.59
2019-01-19T19:34:42.123Z,98297.41
2019-01-19T19:37:54.910Z,98287.75
2019-01-19T19:41:10.752Z,98295.15
2019-01-19T19:44:18.697Z,98295.38
2019-01-19T19:47:18.010Z,98290.52
2019-01-19T19:50:39.887Z,98290.05
2019-01-19T19:53:26.890Z,98295.45
2019-01-19T19:56:13.039Z,98291.06
2019-01-19T19:59:00.239Z,98289.16
2019-01-19T20:01:47.479Z,98292.75
2019-01-19T20:04:34.974Z,98290.06
2019-01-19T20:07:22.478Z,98284.77
2019-01-19T20:10:17.077Z,98279.96
2019-01-19T20:13:00.638Z,98280.55
2019-01-19T20:15:47.649Z,98276.02
2019-01-19T20:18:35.170Z,98276.69
2019-01-19T20:21:22.067Z,98282.64
2019-01-19T20:24:09.286Z,98276.18
2019-01-19T20:26:56.485Z,98275.70
2019-01-19T20:29:44.033Z,98280.91
2019-01-19T20:32:31.383Z,98280.30
2019-01-19T20:35:18.655Z,98274.31
2019-01-19T20:38:06.004Z,98278.80
2019-01-19T20:40:53.253Z,98276.52
2019-01-19T20:43:40.562Z,98279.33
2019-01-19T20:46:28.530Z,98274.05
2019-01-19T20:49:15.832Z,98272.34
2019-01-19T20:52:03.106Z,98273.52
2019-01-19T20:54:50.347Z,98278.26
2019-01-19T20:57:37.664Z,98276.29
2019-01-19T21:00:25.133Z,98286.24
2019-01-19T21:03:12.840Z,98286.02
2019-01-19T21:05:59.822Z,98283.08
2019-01-19T21:08:47.307Z,98277.66
2019-01-19T21:11:35.926Z,98285.66
2019-01-19T21:14:24.950Z,98286.15
2019-01-19T21:17:12.131Z,98289.88
2019-01-19T21:20:00.440Z,98286.77
2019-01-19T21:22:47.649Z,98286.46
2019-01-19T21:25:35.064Z,98285.02
2019-01-19T21:28:22.034Z,98280.23
2019-01-19T21:31:09.208Z,98288.80
2019-01-19T21:33:56.428Z,98280.72
2019-01-19T21:36:43.666Z,98282.78
2019-01-19T21:39:30.932Z,98285.05
2019-01-19T21:42:18.291Z,98282.01
2019-01-19T21:45:09.472Z,98283.27
2019-01-19T21:47:57.762Z,98279.64
2019-01-19T21:50:45.072Z,98288.43
2019-01-19T21:53:32.234Z,98287.96
2019-01-19T21:56:19.559Z,98284.17
2019-01-19T21:59:06.766Z,98287.25
2019-01-19T22:01:54.004Z,98282.95
2019-01-19T22:04:44.263Z,98282.12
2019-01-19T22:07:31.801Z,98284.16
2019-01-19T22:10:22.887Z,98286.16
2019-01-19T22:13:10.190Z,98279.61
2019-01-19T22:15:57.795Z,98281.33
2019-01-19T22:18:45.325Z,98281.59
2019-01-19T22:21:32.732Z,98286.27
2019-01-19T22:24:20.252Z,98279.24
2019-01-19T22:27:08.302Z,98283.95
2019-01-19T22:29:56.010Z,98285.45
2019-01-19T22:32:43.522Z,98281.00
2019-01-19T22:35:30.971Z,98275.30
2019-01-19T22:38:17.978Z,98280.41
2019-01-19T22:41:04.994Z,98275.86
2019-01-19T22:43:52.520Z,98281.64
2019-01-19T22:46:39.943Z,98276.20
2019-01-19T22:49:27.167Z,98279.33
2019-01-19T22:52:14.084Z,98288.48
2019-01-19T22:55:01.334Z,98278.74
2019-01-19T22:57:48.668Z,98274.08
2019-01-19T23:01:01.020Z,98277.83
2019-01-19T23:03:48.290Z,98271.92
2019-01-19T23:06:35.603Z,98273.80
2019-01-19T23:09:23.176Z,98281.73
2019-01-19T23:12:10.054Z,98281.37
2019-01-19T23:14:57.480Z,98275.50
2019-01-19T23:17:44.394Z,98276.50
2019-01-19T23:20:31.608Z,98271.47
2019-01-19T23:23:18.948Z,98270.39
2019-01-19T23:26:06.385Z,98273.89
2019-01-19T23:28:53.551Z,98269.81
2019-01-19T23:31:41.079Z,98266.40
2019-01-19T23:34:28.445Z,98271.34
2019-01-19T23:37:15.664Z,98266.06
2019-01-19T23:40:02.533Z,98270.10
2019-01-19T23:42:50.073Z,98267.06
2019-01-19T23:45:37.236Z,98269.19
2019-01-19T23:48:24.406Z,98265.44
2019-01-19T23:51:11.613Z,98265.44
2019-01-19T23:53:58.821Z,98266.19
2019-01-19T23:56:46.010Z,98268.98
2019-01-19T23:59:33.251Z,98267.11
